createdAt,value
2023-03-30T00:01:21.425Z,97701.16
2023-03-30T00:03:50.558Z,97705.47
2023-03-30T00:06:23.601Z,97691.84
2023-03-30T00:08:58.974Z,97690.78
2023-03-30T00:11:34.277Z,97700.09
2023-03-30T00:14:03.463Z,97692.63
2023-03-30T00:16:32.443Z,97705.66
2023-03-30T00:19:02.820Z,97695.47
2023-03-30T00:21:31.333Z,97700.59
2023-03-30T00:24:00.245Z,97702.47
2023-03-30T00:26:30.374Z,97689.94
2023-03-30T00:28:59.268Z,97691.63
2023-03-30T00:31:27.878Z,97689.94
2023-03-30T00:33:56.412Z,97685.75
2023-03-30T00:36:25.040Z,97684.97
2023-03-30T00:38:53.370Z,97679.03
2023-03-30T00:41:21.870Z,97689.31
2023-03-30T00:44:02.612Z,97680.81
2023-03-30T00:46:31.414Z,97679.13
2023-03-30T00:49:04.230Z,97669.66
2023-03-30T00:51:36.527Z,97679.91
2023-03-30T00:54:10.392Z,97669.72
2023-03-30T00:56:39.124Z,97665.50
2023-03-30T00:59:10.577Z,97663.88
2023-03-30T01:01:40.439Z,97670.66
2023-03-30T01:04:11.147Z,97668.09
2023-03-30T01:06:43.623Z,97665.41
2023-03-30T01:09:12.678Z,97661.88
2023-03-30T01:11:41.391Z,97651.56
2023-03-30T01:14:15.199Z,97639.47
2023-03-30T01:16:50.625Z,97636.88
2023-03-30T01:19:44.087Z,97638.44
2023-03-30T01:22:34.755Z,97644.50
2023-03-30T01:25:34.813Z,97628.41
2023-03-30T01:28:26.296Z,97636.22
2023-03-30T01:31:16.682Z,97625.56
2023-03-30T01:34:16.406Z,97620.59
2023-03-30T01:37:23.645Z,97592.34
2023-03-30T01:39:58.028Z,97620.16
2023-03-30T01:42:37.715Z,97620.25
2023-03-30T01:45:15.660Z,97596.56
2023-03-30T01:47:53.362Z,97595.81
2023-03-30T01:50:27.112Z,97591.25
2023-03-30T01:53:00.631Z,97580.66
2023-03-30T01:55:35.150Z,97589.75
2023-03-30T01:58:08.071Z,97569.78
2023-03-30T02:00:38.557Z,97562.56
2023-03-30T02:03:11.635Z,97558.19
2023-03-30T02:05:42.743Z,97552.16
2023-03-30T02:08:15.005Z,97551.22
2023-03-30T02:10:47.263Z,97560.75
2023-03-30T02:13:16.764Z,97560.16
2023-03-30T02:15:47.974Z,97552.69
2023-03-30T02:18:16.326Z,97572.41
2023-03-30T02:20:44.431Z,97574.13
2023-03-30T02:23:13.588Z,97561.19
2023-03-30T02:25:42.344Z,97572.84
2023-03-30T02:28:11.912Z,97582.25
2023-03-30T02:30:44.203Z,97578.16
2023-03-30T02:33:21.530Z,97563.88
2023-03-30T02:36:03.779Z,97568.09
2023-03-30T02:38:57.591Z,97572.59
2023-03-30T02:41:45.306Z,97568.28
2023-03-30T02:44:23.967Z,97575.06
2023-03-30T02:47:05.669Z,97576.00
2023-03-30T02:49:48.074Z,97566.00
2023-03-30T02:52:24.945Z,97574.53
2023-03-30T02:55:00.143Z,97568.47
2023-03-30T02:57:38.771Z,97566.06
2023-03-30T03:00:14.146Z,97571.25
2023-03-30T03:02:45.973Z,97569.47
2023-03-30T03:05:15.514Z,97562.56
2023-03-30T03:07:45.220Z,97567.81
2023-03-30T03:10:13.826Z,97571.16
2023-03-30T03:12:43.587Z,97568.44
2023-03-30T03:15:14.106Z,97578.47
2023-03-30T03:17:45.457Z,97575.91
2023-03-30T03:20:14.158Z,97579.13
2023-03-30T03:22:43.374Z,97574.13
2023-03-30T03:25:11.847Z,97575.69
2023-03-30T03:27:40.789Z,97586.53
2023-03-30T03:30:10.138Z,97575.59
2023-03-30T03:32:39.796Z,97572.81
2023-03-30T03:35:09.585Z,97569.91
2023-03-30T03:37:38.368Z,97546.09
2023-03-30T03:40:08.634Z,97568.91
2023-03-30T03:42:36.860Z,97575.25
2023-03-30T03:45:05.891Z,97584.47
2023-03-30T03:47:34.738Z,97598.25
2023-03-30T03:50:09.483Z,97592.50
2023-03-30T03:52:38.457Z,97579.72
2023-03-30T03:55:07.923Z,97581.59
2023-03-30T03:57:37.172Z,97578.31
2023-03-30T04:00:15.700Z,97578.56
2023-03-30T04:02:44.316Z,97577.56
2023-03-30T04:05:13.950Z,97583.44
2023-03-30T04:07:42.667Z,97578.25
2023-03-30T04:10:11.501Z,97572.28
2023-03-30T04:12:40.333Z,97576.84
2023-03-30T04:15:10.270Z,97580.19
2023-03-30T04:17:38.567Z,97583.34
2023-03-30T04:20:11.810Z,97582.47
2023-03-30T04:22:43.838Z,97578.94
2023-03-30T04:25:15.154Z,97579.72
2023-03-30T04:27:44.196Z,97582.25
2023-03-30T04:30:14.240Z,97571.03
2023-03-30T04:32:42.644Z,97581.91
2023-03-30T04:35:12.221Z,97577.44
2023-03-30T04:37:43.262Z,97578.94
2023-03-30T04:40:13.358Z,97574.69
2023-03-30T04:42:41.702Z,97579.69
2023-03-30T04:45:11.437Z,97579.94
2023-03-30T04:47:39.862Z,97588.97
2023-03-30T04:50:09.373Z,97584.16
2023-03-30T04:52:38.463Z,97579.97
2023-03-30T04:55:10.189Z,97574.13
2023-03-30T04:57:38.661Z,97568.81
2023-03-30T05:00:09.371Z,97576.97
2023-03-30T05:02:38.010Z,97578.22
2023-03-30T05:05:07.482Z,97578.09
2023-03-30T05:07:36.015Z,97595.69
2023-03-30T05:10:04.650Z,97589.22
2023-03-30T05:12:35.821Z,97597.31
2023-03-30T05:15:04.045Z,97609.78
2023-03-30T05:17:39.072Z,97597.19
2023-03-30T05:20:10.570Z,97595.56
2023-03-30T05:22:39.288Z,97606.00
2023-03-30T05:25:09.735Z,97608.00
2023-03-30T05:27:39.440Z,97618.41
2023-03-30T05:30:09.027Z,97621.03
2023-03-30T05:32:37.857Z,97622.84
2023-03-30T05:35:07.185Z,97630.66
2023-03-30T05:37:36.234Z,97626.53
2023-03-30T05:40:08.261Z,97622.31
2023-03-30T05:42:38.441Z,97624.88
2023-03-30T05:45:08.394Z,97610.53
2023-03-30T05:47:36.982Z,97608.19
2023-03-30T05:50:05.669Z,97597.09
2023-03-30T05:52:34.227Z,97593.88
2023-03-30T05:55:02.377Z,97584.41
2023-03-30T05:57:31.826Z,97575.16
2023-03-30T06:00:01.616Z,97582.75
2023-03-30T06:02:30.934Z,97552.19
2023-03-30T06:05:01.743Z,97552.69
2023-03-30T06:07:31.028Z,97552.75
2023-03-30T06:10:01.761Z,97551.94
2023-03-30T06:12:30.900Z,97533.16
2023-03-30T06:15:00.199Z,97527.16
2023-03-30T06:17:30.736Z,97527.72
2023-03-30T06:19:59.014Z,97538.69
2023-03-30T06:22:29.310Z,97531.13
2023-03-30T06:24:59.812Z,97528.75
2023-03-30T06:27:28.520Z,97535.63
2023-03-30T06:29:57.432Z,97543.25
2023-03-30T06:32:25.911Z,97535.63
2023-03-30T06:34:55.910Z,97544.72
2023-03-30T06:37:24.794Z,97548.00
2023-03-30T06:39:53.715Z,97563.34
2023-03-30T06:42:22.381Z,97542.75
2023-03-30T06:44:52.221Z,97551.38
2023-03-30T06:47:23.143Z,97528.22
2023-03-30T06:49:51.851Z,97515.56
2023-03-30T06:52:22.163Z,97502.16
2023-03-30T06:54:50.810Z,97513.41
2023-03-30T06:57:19.517Z,97525.25
2023-03-30T06:59:48.138Z,97528.53
2023-03-30T07:02:17.380Z,97539.69
2023-03-30T07:04:47.211Z,97541.19
2023-03-30T07:07:16.129Z,97530.97
2023-03-30T07:09:46.615Z,97532.56
2023-03-30T07:12:15.288Z,97532.56
2023-03-30T07:14:44.209Z,97528.22
2023-03-30T07:17:12.969Z,97523.88
2023-03-30T07:19:41.928Z,97527.19
2023-03-30T07:22:10.485Z,97528.00
2023-03-30T07:24:39.175Z,97520.28
2023-03-30T07:27:09.568Z,97533.16
2023-03-30T07:29:38.114Z,97536.66
2023-03-30T07:32:06.891Z,97555.25
2023-03-30T07:34:35.285Z,97566.41
2023-03-30T07:37:03.949Z,97581.00
2023-03-30T07:39:33.926Z,97597.31
2023-03-30T07:42:02.360Z,97606.00
2023-03-30T07:44:32.294Z,97614.78
2023-03-30T07:47:02.089Z,97619.84
2023-03-30T07:49:30.963Z,97633.75
2023-03-30T07:51:59.358Z,97648.19
2023-03-30T07:54:28.049Z,97633.47
2023-03-30T07:56:58.017Z,97643.09
2023-03-30T07:59:27.292Z,97633.34
2023-03-30T08:01:57.318Z,97628.31
2023-03-30T08:04:27.995Z,97640.16
2023-03-30T08:06:56.458Z,97640.06
2023-03-30T08:09:25.632Z,97629.69
2023-03-30T08:11:54.191Z,97629.66
2023-03-30T08:14:23.813Z,97624.63
2023-03-30T08:16:52.949Z,97613.75
2023-03-30T08:19:28.682Z,97607.44
2023-03-30T08:21:57.748Z,97626.78
2023-03-30T08:24:26.646Z,97636.09
2023-03-30T08:26:55.049Z,97650.03
2023-03-30T08:29:24.291Z,97679.94
2023-03-30T08:31:54.622Z,97697.13
2023-03-30T08:34:22.661Z,97703.19
2023-03-30T08:36:52.716Z,97715.28
2023-03-30T08:39:21.577Z,97710.97
2023-03-30T08:42:04.442Z,97687.75
2023-03-30T08:44:36.816Z,97669.03
2023-03-30T08:47:10.316Z,97691.38
2023-03-30T08:49:44.087Z,97698.16
2023-03-30T08:52:21.302Z,97691.97
2023-03-30T08:54:52.393Z,97697.94
2023-03-30T08:57:39.361Z,97704.66
2023-03-30T09:00:22.556Z,97689.84
2023-03-30T09:02:57.169Z,97682.28
2023-03-30T09:05:31.215Z,97686.56
2023-03-30T09:08:03.483Z,97694.25
2023-03-30T09:10:39.043Z,97691.63
2023-03-30T09:13:09.135Z,97669.34
2023-03-30T09:15:43.158Z,97672.84
2023-03-30T09:18:17.544Z,97664.16
2023-03-30T09:20:48.444Z,97666.47
2023-03-30T09:23:19.415Z,97667.06
2023-03-30T09:25:53.591Z,97675.28
2023-03-30T09:28:27.910Z,97675.91
2023-03-30T09:31:03.212Z,97674.56
2023-03-30T09:33:38.667Z,97661.00
2023-03-30T09:36:14.999Z,97654.28
2023-03-30T09:38:46.185Z,97663.25
2023-03-30T09:41:31.046Z,97668.50
2023-03-30T09:44:01.160Z,97680.69
2023-03-30T09:46:31.023Z,97683.75
2023-03-30T09:49:15.272Z,97697.38
2023-03-30T09:51:58.305Z,97702.31
2023-03-30T09:54:36.549Z,97718.63
2023-03-30T09:57:05.199Z,97722.31
2023-03-30T09:59:36.529Z,97712.63
2023-03-30T10:02:18.675Z,97713.22
2023-03-30T10:05:02.729Z,97685.25
2023-03-30T10:07:35.100Z,97627.28
2023-03-30T10:10:16.901Z,97587.28
2023-03-30T10:12:47.728Z,97593.06
2023-03-30T10:15:19.320Z,97620.66
2023-03-30T10:17:51.514Z,97644.63
2023-03-30T10:20:26.901Z,97610.94
2023-03-30T10:22:57.177Z,97634.50
2023-03-30T10:25:29.843Z,97644.38
2023-03-30T10:28:01.918Z,97656.00
2023-03-30T10:30:32.269Z,97629.88
2023-03-30T10:33:03.853Z,97617.41
2023-03-30T10:35:37.058Z,97626.22
2023-03-30T10:38:10.713Z,97617.03
2023-03-30T10:40:44.258Z,97609.84
2023-03-30T10:43:17.316Z,97609.88
2023-03-30T10:45:48.653Z,97610.38
2023-03-30T10:48:32.307Z,97617.13
2023-03-30T10:51:11.853Z,97612.22
2023-03-30T10:53:50.000Z,97609.56
2023-03-30T10:56:29.006Z,97602.31
2023-03-30T10:59:19.033Z,97605.59
2023-03-30T11:02:01.105Z,97622.88
2023-03-30T11:04:36.790Z,97625.19
2023-03-30T11:07:12.336Z,97627.84
2023-03-30T11:09:48.631Z,97623.31
2023-03-30T11:12:22.614Z,97611.38
2023-03-30T11:14:52.701Z,97621.72
2023-03-30T11:17:25.343Z,97607.28
2023-03-30T11:19:57.626Z,97606.56
2023-03-30T11:22:34.530Z,97608.72
2023-03-30T11:25:05.479Z,97611.53
2023-03-30T11:27:42.233Z,97618.81
2023-03-30T11:30:18.115Z,97609.63
2023-03-30T11:32:56.269Z,97627.50
2023-03-30T11:35:35.026Z,97622.69
2023-03-30T11:38:13.022Z,97633.59
2023-03-30T11:40:47.451Z,97633.47
2023-03-30T11:43:21.964Z,97627.53
2023-03-30T11:45:57.279Z,97636.06
2023-03-30T11:48:50.553Z,97632.88
2023-03-30T11:51:32.258Z,97642.94
2023-03-30T11:54:12.803Z,97637.78
2023-03-30T11:56:50.747Z,97615.63
2023-03-30T11:59:33.623Z,97619.41
2023-03-30T12:02:14.410Z,97623.06
2023-03-30T12:04:53.576Z,97618.88
2023-03-30T12:07:33.977Z,97612.81
2023-03-30T12:10:08.427Z,97612.47
2023-03-30T12:12:41.190Z,97616.25
2023-03-30T12:15:29.448Z,97627.44
2023-03-30T12:18:05.610Z,97607.34
2023-03-30T12:20:46.775Z,97605.31
2023-03-30T12:23:36.162Z,97608.59
2023-03-30T12:26:13.942Z,97607.06
2023-03-30T12:31:22.966Z,97607.31
2023-03-30T12:33:54.009Z,97597.53
2023-03-30T12:36:34.718Z,97602.38
2023-03-30T12:39:06.059Z,97591.28
2023-03-30T12:41:43.744Z,97590.47
2023-03-30T12:44:51.161Z,97590.13
2023-03-30T12:47:39.713Z,97565.72
2023-03-30T12:50:27.142Z,97565.31
2023-03-30T12:53:07.356Z,97552.09
2023-03-30T12:55:49.111Z,97557.72
2023-03-30T12:58:59.878Z,97546.44
2023-03-30T13:01:49.739Z,97555.94
2023-03-30T13:04:24.103Z,97545.69
2023-03-30T13:06:54.882Z,97547.34
2023-03-30T13:09:36.284Z,97557.41
2023-03-30T13:12:23.072Z,97547.44
2023-03-30T13:15:01.687Z,97552.69
2023-03-30T13:17:49.129Z,97553.47
2023-03-30T13:20:29.033Z,97541.41
2023-03-30T13:23:27.506Z,97522.53
2023-03-30T13:26:07.175Z,97520.78
2023-03-30T13:28:49.318Z,97513.38
2023-03-30T13:31:32.361Z,97511.38
2023-03-30T13:34:14.603Z,97511.25
2023-03-30T13:36:54.367Z,97502.25
2023-03-30T13:39:30.492Z,97510.72
2023-03-30T13:42:16.482Z,97499.34
2023-03-30T13:44:56.784Z,97503.44
2023-03-30T13:47:43.160Z,97499.03
2023-03-30T13:50:23.251Z,97472.16
2023-03-30T13:52:57.130Z,97486.72
2023-03-30T13:55:33.236Z,97477.59
2023-03-30T13:58:06.225Z,97476.25
2023-03-30T14:00:46.570Z,97474.69
2023-03-30T14:03:35.236Z,97453.66
2023-03-30T14:06:08.069Z,97460.84
2023-03-30T14:08:41.001Z,97455.06
2023-03-30T14:11:20.102Z,97443.13
2023-03-30T14:13:53.400Z,97445.22
2023-03-30T14:16:24.997Z,97429.09
2023-03-30T14:18:54.570Z,97431.28
2023-03-30T14:21:25.035Z,97413.69
2023-03-30T14:23:56.158Z,97423.38
2023-03-30T14:26:27.178Z,97411.22
2023-03-30T14:28:57.362Z,97413.59
2023-03-30T14:31:28.093Z,97414.28
2023-03-30T14:33:56.861Z,97408.03
2023-03-30T14:36:26.780Z,97418.72
2023-03-30T14:38:57.849Z,97402.53
2023-03-30T14:41:28.866Z,97405.88
2023-03-30T14:44:00.613Z,97404.94
2023-03-30T14:46:34.661Z,97402.84
2023-03-30T14:49:03.964Z,97398.66
2023-03-30T14:51:41.000Z,97410.44
2023-03-30T14:54:16.668Z,97421.72
2023-03-30T14:56:46.677Z,97413.78
2023-03-30T14:59:19.627Z,97417.38
2023-03-30T15:01:48.451Z,97428.09
2023-03-30T15:04:19.883Z,97414.69
2023-03-30T15:06:49.445Z,97411.28
2023-03-30T15:09:21.808Z,97426.38
2023-03-30T15:11:55.008Z,97424.81
2023-03-30T15:14:24.918Z,97424.72
2023-03-30T15:16:58.692Z,97435.88
2023-03-30T15:19:32.195Z,97429.56
2023-03-30T15:22:04.936Z,97424.00
2023-03-30T15:24:38.248Z,97432.06
2023-03-30T15:27:11.823Z,97429.84
2023-03-30T15:29:45.028Z,97421.19
2023-03-30T15:32:16.445Z,97421.50
2023-03-30T15:35:02.910Z,97433.81
2023-03-30T15:37:34.342Z,97442.91
2023-03-30T15:40:05.803Z,97448.09
2023-03-30T15:42:35.699Z,97430.56
2023-03-30T15:45:10.749Z,97444.25
2023-03-30T15:47:40.692Z,97452.75
2023-03-30T15:50:14.211Z,97439.75
2023-03-30T15:52:45.933Z,97450.88
2023-03-30T15:55:21.101Z,97443.44
2023-03-30T15:57:52.718Z,97447.84
2023-03-30T16:00:23.335Z,97453.28
2023-03-30T16:02:58.552Z,97463.09
2023-03-30T16:05:29.041Z,97460.47
2023-03-30T16:07:58.810Z,97456.78
2023-03-30T16:10:32.253Z,97465.06
2023-03-30T16:13:02.331Z,97454.06
2023-03-30T16:15:34.560Z,97462.34
2023-03-30T16:18:03.224Z,97458.81
2023-03-30T16:20:34.122Z,97453.81
2023-03-30T16:23:04.177Z,97450.72
2023-03-30T16:25:44.857Z,97447.63
2023-03-30T16:28:18.063Z,97451.47
2023-03-30T16:30:48.632Z,97453.63
2023-03-30T16:33:17.295Z,97453.13
2023-03-30T16:35:46.293Z,97440.66
2023-03-30T16:38:22.640Z,97453.94
2023-03-30T16:40:55.651Z,97448.81
2023-03-30T16:43:41.002Z,97445.19
2023-03-30T16:46:25.436Z,97447.00
2023-03-30T16:48:58.070Z,97452.69
2023-03-30T16:51:37.749Z,97459.22
2023-03-30T16:54:11.497Z,97456.19
2023-03-30T16:56:52.604Z,97453.34
2023-03-30T16:59:24.546Z,97458.25
2023-03-30T17:01:55.180Z,97467.41
2023-03-30T17:04:29.819Z,97464.22
2023-03-30T17:07:00.762Z,97466.16
2023-03-30T17:09:30.660Z,97455.97
2023-03-30T17:12:02.431Z,97468.00
2023-03-30T17:14:32.686Z,97479.72
2023-03-30T17:17:01.936Z,97462.06
2023-03-30T17:19:30.689Z,97473.91
2023-03-30T17:22:00.514Z,97476.91
2023-03-30T17:24:29.288Z,97461.78
2023-03-30T17:27:01.714Z,97491.44
2023-03-30T17:29:30.390Z,97478.53
2023-03-30T17:32:00.234Z,97492.31
2023-03-30T17:34:29.678Z,97489.34
2023-03-30T17:36:59.156Z,97499.97
2023-03-30T17:39:28.294Z,97493.34
2023-03-30T17:42:00.895Z,97506.50
2023-03-30T17:44:33.243Z,97521.38
2023-03-30T17:47:02.763Z,97518.38
2023-03-30T17:49:32.546Z,97517.97
2023-03-30T17:52:01.469Z,97529.47
2023-03-30T17:54:31.217Z,97531.38
2023-03-30T17:57:00.158Z,97535.34
2023-03-30T17:59:29.085Z,97531.09
2023-03-30T18:01:59.760Z,97550.28
2023-03-30T18:04:28.832Z,97547.59
2023-03-30T18:06:58.753Z,97549.91
2023-03-30T18:09:28.317Z,97560.00
2023-03-30T18:11:57.843Z,97562.13
2023-03-30T18:14:26.492Z,97562.22
2023-03-30T18:17:05.902Z,97559.53
2023-03-30T18:19:38.431Z,97560.13
2023-03-30T18:22:23.103Z,97546.34
2023-03-30T18:24:53.234Z,97546.25
2023-03-30T18:27:23.895Z,97559.13
2023-03-30T18:29:53.169Z,97565.78
2023-03-30T18:32:27.283Z,97555.19
2023-03-30T18:35:02.865Z,97567.56
2023-03-30T18:37:31.729Z,97564.44
2023-03-30T18:40:00.329Z,97572.28
2023-03-30T18:42:28.965Z,97570.34
2023-03-30T18:44:58.068Z,97568.53
2023-03-30T18:47:27.309Z,97567.69
2023-03-30T18:49:56.055Z,97579.56
2023-03-30T18:52:28.446Z,97584.34
2023-03-30T18:54:57.163Z,97584.28
2023-03-30T18:57:25.575Z,97586.28
2023-03-30T18:59:54.450Z,97588.00
2023-03-30T19:02:24.172Z,97590.63
2023-03-30T19:04:54.952Z,97587.66
2023-03-30T19:07:24.659Z,97586.41
2023-03-30T19:09:54.946Z,97599.72
2023-03-30T19:12:23.830Z,97603.34
2023-03-30T19:14:52.311Z,97603.03
2023-03-30T19:17:20.827Z,97590.03
2023-03-30T19:19:49.511Z,97588.00
2023-03-30T19:22:19.633Z,97602.81
2023-03-30T19:24:48.431Z,97598.69
2023-03-30T19:27:18.391Z,97599.00
2023-03-30T19:29:47.242Z,97598.28
2023-03-30T19:32:17.143Z,97594.69
2023-03-30T19:34:45.801Z,97601.19
2023-03-30T19:37:16.697Z,97614.13
2023-03-30T19:39:45.773Z,97604.91
2023-03-30T19:42:14.070Z,97626.38
2023-03-30T19:44:45.308Z,97604.34
2023-03-30T19:47:14.209Z,97617.66
2023-03-30T19:49:43.937Z,97618.41
2023-03-30T19:52:14.353Z,97620.19
2023-03-30T19:54:42.957Z,97622.72
2023-03-30T19:57:13.377Z,97624.28
2023-03-30T19:59:41.918Z,97626.63
2023-03-30T20:02:13.981Z,97615.63
2023-03-30T20:04:42.660Z,97623.06
2023-03-30T20:07:14.131Z,97621.34
2023-03-30T20:09:45.887Z,97624.75
2023-03-30T20:12:14.728Z,97624.63
2023-03-30T20:14:44.276Z,97616.31
2023-03-30T20:17:15.579Z,97618.91
2023-03-30T20:19:44.808Z,97621.78
2023-03-30T20:22:13.797Z,97625.19
2023-03-30T20:24:45.155Z,97612.22
2023-03-30T20:27:14.303Z,97614.44
2023-03-30T20:29:42.779Z,97628.09
2023-03-30T20:32:11.921Z,97608.34
2023-03-30T20:34:43.342Z,97619.03
2023-03-30T20:37:12.194Z,97617.44
2023-03-30T20:39:41.940Z,97618.00
2023-03-30T20:42:10.952Z,97615.63
2023-03-30T20:44:41.198Z,97625.19
2023-03-30T20:47:11.265Z,97628.13
2023-03-30T20:49:43.987Z,97619.03
2023-03-30T20:52:14.211Z,97622.19
2023-03-30T20:54:44.705Z,97602.03
2023-03-30T20:57:13.621Z,97613.19
2023-03-30T20:59:42.156Z,97614.38
2023-03-30T21:02:14.034Z,97603.84
2023-03-30T21:04:45.252Z,97603.63
2023-03-30T21:07:16.445Z,97613.91
2023-03-30T21:09:45.744Z,97610.75
2023-03-30T21:12:14.319Z,97615.34
2023-03-30T21:14:47.136Z,97619.16
2023-03-30T21:17:15.574Z,97628.59
2023-03-30T21:19:47.394Z,97626.16
2023-03-30T21:22:18.131Z,97630.31
2023-03-30T21:24:46.398Z,97631.03
2023-03-30T21:27:15.160Z,97638.97
2023-03-30T21:29:43.719Z,97630.06
2023-03-30T21:32:12.488Z,97635.47
2023-03-30T21:34:43.414Z,97632.16
2023-03-30T21:37:13.486Z,97613.22
2023-03-30T21:39:42.618Z,97615.84
2023-03-30T21:42:11.527Z,97613.03
2023-03-30T21:44:40.172Z,97612.91
2023-03-30T21:47:09.505Z,97613.84
2023-03-30T21:49:38.369Z,97613.81
2023-03-30T21:52:07.028Z,97611.25
2023-03-30T21:54:37.471Z,97614.72
2023-03-30T21:57:06.004Z,97602.00
2023-03-30T21:59:34.841Z,97605.31
2023-03-30T22:02:03.159Z,97595.81
2023-03-30T22:04:31.537Z,97593.56
2023-03-30T22:07:00.296Z,97602.00
2023-03-30T22:09:29.646Z,97600.50
2023-03-30T22:11:59.538Z,97600.50
2023-03-30T22:14:28.216Z,97596.31
2023-03-30T22:16:58.416Z,97595.00
2023-03-30T22:19:26.964Z,97594.28
2023-03-30T22:21:55.507Z,97591.91
2023-03-30T22:24:24.311Z,97589.97
2023-03-30T22:26:52.982Z,97582.44
2023-03-30T22:29:23.479Z,97583.44
2023-03-30T22:31:56.321Z,97580.22
2023-03-30T22:34:24.833Z,97571.88
2023-03-30T22:36:54.550Z,97563.31
2023-03-30T22:39:23.914Z,97560.03
2023-03-30T22:41:52.748Z,97558.22
2023-03-30T22:44:23.133Z,97557.34
2023-03-30T22:46:52.331Z,97547.06
2023-03-30T22:49:20.768Z,97538.47
2023-03-30T22:51:53.135Z,97532.69
2023-03-30T22:54:21.948Z,97534.41
2023-03-30T22:56:50.656Z,97527.56
2023-03-30T22:59:19.668Z,97524.81
2023-03-30T23:01:50.920Z,97528.28
2023-03-30T23:04:20.487Z,97522.34
2023-03-30T23:06:49.282Z,97518.28
2023-03-30T23:09:18.245Z,97532.06
2023-03-30T23:11:46.751Z,97521.16
2023-03-30T23:14:16.844Z,97513.63
2023-03-30T23:16:47.886Z,97511.19
2023-03-30T23:19:18.046Z,97507.34
2023-03-30T23:21:46.693Z,97506.53
2023-03-30T23:24:15.931Z,97495.69
2023-03-30T23:26:44.368Z,97494.16
2023-03-30T23:29:12.565Z,97484.16
2023-03-30T23:31:43.231Z,97465.72
2023-03-30T23:34:14.543Z,97457.94
2023-03-30T23:36:45.096Z,97457.16
2023-03-30T23:39:13.476Z,97460.69
2023-03-30T23:41:42.095Z,97448.22
2023-03-30T23:44:10.945Z,97461.91
2023-03-30T23:46:40.110Z,97450.13
2023-03-30T23:49:08.952Z,97446.91
2023-03-30T23:51:37.738Z,97446.25
2023-03-30T23:54:08.110Z,97446.34
2023-03-30T23:56:39.203Z,97453.97
2023-03-30T23:59:08.209Z,97445.66
